createdAt,value
2017-12-14T00:00:02.308Z,19.37
2017-12-14T00:02:10.650Z,19.31
2017-12-14T00:04:23.452Z,19.37
2017-12-14T00:06:36.075Z,19.40
2017-12-14T00:08:46.259Z,19.32
2017-12-14T00:11:03.723Z,19.36
2017-12-14T00:13:13.606Z,19.40
2017-12-14T00:15:27.875Z,19.32
2017-12-14T00:17:35.031Z,19.29
2017-12-14T00:19:43.544Z,19.27
2017-12-14T00:21:53.594Z,19.30
2017-12-14T00:23:59.964Z,19.26
2017-12-14T00:26:11.008Z,19.26
2017-12-14T00:28:19.250Z,19.31
2017-12-14T00:30:26.776Z,19.38
2017-12-14T00:32:32.809Z,19.32
2017-12-14T00:34:39.815Z,19.28
2017-12-14T00:36:51.534Z,19.31
2017-12-14T00:41:10.616Z,19.28
2017-12-14T00:43:17.457Z,19.27
2017-12-14T00:45:24.920Z,19.29
2017-12-14T00:47:34.567Z,19.29
2017-12-14T00:49:45.388Z,19.36
2017-12-14T00:51:54.761Z,19.28
2017-12-14T00:54:04.298Z,19.26
2017-12-14T00:56:11.035Z,19.30
2017-12-14T01:00:33.472Z,19.29
2017-12-14T01:02:41.267Z,19.32
2017-12-14T01:04:51.770Z,19.26
2017-12-14T01:07:02.439Z,19.22
2017-12-14T01:09:11.493Z,19.24
2017-12-14T01:11:17.919Z,19.24
2017-12-14T01:13:25.274Z,19.20
2017-12-14T01:15:32.390Z,19.27
2017-12-14T01:17:38.992Z,19.33
2017-12-14T01:19:46.986Z,19.35
2017-12-14T01:21:55.102Z,19.28
2017-12-14T01:24:00.900Z,19.23
2017-12-14T01:26:15.639Z,19.33
2017-12-14T01:28:24.191Z,19.36
2017-12-14T01:30:32.474Z,19.30
2017-12-14T01:32:39.958Z,19.28
2017-12-14T01:34:47.201Z,19.36
2017-12-14T01:36:54.237Z,19.35
2017-12-14T01:39:00.156Z,19.30
2017-12-14T01:41:07.122Z,19.30
2017-12-14T01:43:12.537Z,19.33
2017-12-14T01:45:22.329Z,19.25
2017-12-14T01:47:31.473Z,19.28
2017-12-14T01:49:37.689Z,19.37
2017-12-14T01:51:47.278Z,19.38
2017-12-14T01:53:53.602Z,19.39
2017-12-14T01:55:59.252Z,19.36
2017-12-14T01:58:06.321Z,19.32
2017-12-14T02:00:16.874Z,19.39
2017-12-14T02:02:22.301Z,19.38
2017-12-14T02:04:28.892Z,19.36
2017-12-14T02:06:40.070Z,19.41
2017-12-14T02:08:46.145Z,19.37
2017-12-14T02:10:51.943Z,19.33
2017-12-14T02:13:00.259Z,19.28
2017-12-14T02:15:08.851Z,19.31
2017-12-14T02:17:14.536Z,19.25
2017-12-14T02:19:24.651Z,19.25
2017-12-14T02:21:33.644Z,19.16
2017-12-14T02:23:43.514Z,19.18
2017-12-14T02:25:56.447Z,19.19
2017-12-14T02:28:06.777Z,19.15
2017-12-14T02:30:14.820Z,19.18
2017-12-14T02:32:22.053Z,19.13
2017-12-14T02:34:29.167Z,19.15
2017-12-14T02:36:34.706Z,19.11
2017-12-14T02:38:42.299Z,19.20
2017-12-14T02:40:55.195Z,19.18
2017-12-14T02:43:02.387Z,19.11
2017-12-14T02:45:09.155Z,19.22
2017-12-14T02:47:19.035Z,19.18
2017-12-14T02:49:29.011Z,19.14
2017-12-14T02:51:37.785Z,19.17
2017-12-14T02:53:43.732Z,19.15
2017-12-14T02:55:50.135Z,19.11
2017-12-14T02:57:58.482Z,19.10
2017-12-14T03:00:08.351Z,19.09
2017-12-14T03:02:19.567Z,19.10
2017-12-14T03:04:27.505Z,19.10
2017-12-14T03:06:34.462Z,19.15
2017-12-14T03:08:40.490Z,19.16
2017-12-14T03:10:48.075Z,19.07
2017-12-14T03:12:56.259Z,19.14
2017-12-14T03:15:04.401Z,19.11
2017-12-14T03:17:10.327Z,19.03
2017-12-14T03:19:16.346Z,19.11
2017-12-14T03:21:22.563Z,19.06
2017-12-14T03:23:30.954Z,19.01
2017-12-14T03:25:37.460Z,19.13
2017-12-14T03:27:42.906Z,19.09
2017-12-14T03:29:48.581Z,19.02
2017-12-14T03:32:00.503Z,19.05
2017-12-14T03:34:06.179Z,19.06
2017-12-14T03:36:12.566Z,19.08
2017-12-14T03:38:18.277Z,19.15
2017-12-14T03:40:23.821Z,19.15
2017-12-14T03:42:30.265Z,19.18
2017-12-14T03:44:36.971Z,19.17
2017-12-14T03:46:42.488Z,19.17
2017-12-14T03:48:48.828Z,19.17
2017-12-14T03:50:54.480Z,19.17
2017-12-14T03:53:00.579Z,19.11
2017-12-14T03:55:06.473Z,19.18
2017-12-14T03:57:13.763Z,19.20
2017-12-14T03:59:19.311Z,19.16
2017-12-14T04:01:27.023Z,19.21
2017-12-14T04:03:39.619Z,19.18
2017-12-14T04:05:47.424Z,19.12
2017-12-14T04:07:54.001Z,19.15
2017-12-14T04:10:06.656Z,19.19
2017-12-14T04:12:17.723Z,19.20
2017-12-14T04:14:23.914Z,19.20
2017-12-14T04:18:42.093Z,19.13
2017-12-14T04:20:48.182Z,19.20
2017-12-14T04:22:53.958Z,19.15
2017-12-14T04:24:59.488Z,19.20
2017-12-14T04:27:07.735Z,19.18
2017-12-14T04:29:15.998Z,19.25
2017-12-14T04:31:25.547Z,19.22
2017-12-14T04:33:33.702Z,19.25
2017-12-14T04:35:39.338Z,19.17
2017-12-14T04:37:45.665Z,19.15
2017-12-14T04:39:52.019Z,19.17
2017-12-14T04:41:57.804Z,19.14
2017-12-14T04:44:03.421Z,19.14
2017-12-14T04:46:09.366Z,19.13
2017-12-14T04:48:15.318Z,19.13
2017-12-14T04:50:22.284Z,19.09
2017-12-14T04:52:28.749Z,19.10
2017-12-14T04:54:34.331Z,19.12
2017-12-14T04:56:43.405Z,19.15
2017-12-14T04:58:49.857Z,19.19
2017-12-14T05:00:55.826Z,19.17
2017-12-14T05:03:01.772Z,19.11
2017-12-14T05:05:08.212Z,19.08
2017-12-14T05:07:14.234Z,19.15
2017-12-14T05:09:22.851Z,19.11
2017-12-14T05:11:28.667Z,19.21
2017-12-14T05:13:36.415Z,19.19
2017-12-14T05:15:42.084Z,19.19
2017-12-14T05:17:50.329Z,19.20
2017-12-14T05:19:56.764Z,19.18
2017-12-14T05:22:02.916Z,19.19
2017-12-14T05:24:10.078Z,19.21
2017-12-14T05:26:15.984Z,19.22
2017-12-14T05:28:21.981Z,19.26
2017-12-14T05:30:29.768Z,19.24
2017-12-14T05:32:37.147Z,19.18
2017-12-14T05:34:43.631Z,19.17
2017-12-14T05:36:49.553Z,19.18
2017-12-14T05:38:55.947Z,19.20
2017-12-14T05:41:01.702Z,19.20
2017-12-14T05:43:08.565Z,19.20
2017-12-14T05:45:14.014Z,19.21
2017-12-14T05:47:22.175Z,19.21
2017-12-14T05:49:34.170Z,19.23
2017-12-14T05:51:42.954Z,19.23
2017-12-14T05:53:49.184Z,19.25
2017-12-14T05:55:58.272Z,19.32
2017-12-14T06:00:21.558Z,19.26
2017-12-14T06:02:30.389Z,19.22
2017-12-14T06:04:36.570Z,19.21
2017-12-14T06:06:49.956Z,19.22
2017-12-14T06:11:07.762Z,19.28
2017-12-14T06:13:20.303Z,19.31
2017-12-14T06:15:31.587Z,19.27
2017-12-14T06:20:13.465Z,19.23
2017-12-14T06:22:33.755Z,19.17
2017-12-14T06:24:44.180Z,19.14
2017-12-14T06:26:58.568Z,19.17
2017-12-14T06:29:09.697Z,19.21
2017-12-14T06:31:16.912Z,19.25
2017-12-14T06:33:22.823Z,19.41
2017-12-14T06:35:29.020Z,19.57
2017-12-14T06:37:47.971Z,19.62
2017-12-14T06:39:54.166Z,19.59
2017-12-14T06:42:01.122Z,19.61
2017-12-14T06:44:11.402Z,19.69
2017-12-14T06:46:18.869Z,19.67
2017-12-14T06:48:27.786Z,19.80
2017-12-14T06:50:34.520Z,19.61
2017-12-14T06:52:42.306Z,19.77
2017-12-14T06:54:50.894Z,19.73
2017-12-14T06:56:59.053Z,19.78
2017-12-14T06:59:07.459Z,19.78
2017-12-14T07:01:17.423Z,19.66
2017-12-14T07:03:30.771Z,19.66
2017-12-14T07:05:47.324Z,19.57
2017-12-14T07:07:56.552Z,19.53
2017-12-14T07:10:03.598Z,19.69
2017-12-14T07:12:12.442Z,19.59
2017-12-14T07:14:18.694Z,19.62
2017-12-14T07:16:24.879Z,19.60
2017-12-14T07:18:30.701Z,19.59
2017-12-14T07:20:40.169Z,19.73
2017-12-14T07:22:49.419Z,19.73
2017-12-14T07:24:56.311Z,19.75
2017-12-14T07:27:02.305Z,19.84
2017-12-14T07:29:13.387Z,19.79
2017-12-14T07:31:21.626Z,19.83
2017-12-14T07:33:32.114Z,19.78
2017-12-14T07:35:41.355Z,19.88
2017-12-14T07:37:55.176Z,19.95
2017-12-14T07:40:05.917Z,19.90
2017-12-14T07:42:20.240Z,19.90
2017-12-14T07:44:31.599Z,20.05
2017-12-14T07:46:42.716Z,19.96
2017-12-14T07:49:02.674Z,19.98
2017-12-14T07:51:18.232Z,19.88
2017-12-14T07:53:26.713Z,19.99
2017-12-14T07:58:23.848Z,20.06
2017-12-14T08:00:41.200Z,20.12
2017-12-14T08:02:49.243Z,20.06
2017-12-14T08:05:00.259Z,19.97
2017-12-14T08:07:10.166Z,19.89
2017-12-14T08:09:21.743Z,19.86
2017-12-14T08:11:29.296Z,19.91
2017-12-14T08:13:43.502Z,19.81
2017-12-14T08:15:57.883Z,19.85
2017-12-14T08:18:06.955Z,19.84
2017-12-14T08:20:14.370Z,19.82
2017-12-14T08:22:23.291Z,19.91
2017-12-14T08:24:34.400Z,19.80
2017-12-14T08:26:46.396Z,19.72
2017-12-14T08:28:54.571Z,19.66
2017-12-14T08:31:00.292Z,19.65
2017-12-14T08:33:07.684Z,19.75
2017-12-14T08:35:26.862Z,19.80
2017-12-14T08:37:36.395Z,19.78
2017-12-14T08:39:45.642Z,20.01
2017-12-14T08:41:55.715Z,19.93
2017-12-14T08:44:04.555Z,20.06
2017-12-14T08:46:12.628Z,19.92
2017-12-14T08:48:20.420Z,19.91
2017-12-14T08:50:31.534Z,19.95
2017-12-14T08:52:41.104Z,19.87
2017-12-14T08:54:51.243Z,19.92
2017-12-14T08:56:58.079Z,19.90
2017-12-14T08:59:10.285Z,19.91
2017-12-14T09:01:20.530Z,19.70
2017-12-14T09:03:35.401Z,19.57
2017-12-14T09:05:55.249Z,19.56
2017-12-14T09:10:21.072Z,19.42
2017-12-14T09:12:32.555Z,19.49
2017-12-14T09:14:46.995Z,19.45
2017-12-14T09:19:28.408Z,19.39
2017-12-14T09:21:40.768Z,19.26
2017-12-14T09:23:51.782Z,19.21
2017-12-14T09:25:59.884Z,19.21
2017-12-14T09:28:11.603Z,19.20
2017-12-14T09:30:19.110Z,19.19
2017-12-14T09:32:25.524Z,19.19
2017-12-14T09:34:33.549Z,19.19
2017-12-14T09:36:45.148Z,19.41
2017-12-14T09:38:54.871Z,19.43
2017-12-14T09:41:00.648Z,19.46
2017-12-14T09:43:19.967Z,19.46
2017-12-14T09:45:35.630Z,19.52
2017-12-14T09:47:54.315Z,19.49
2017-12-14T09:50:06.848Z,19.63
2017-12-14T09:52:15.853Z,19.66
2017-12-14T09:56:50.966Z,19.47
2017-12-14T09:58:59.347Z,19.42
2017-12-14T10:01:17.818Z,19.41
2017-12-14T10:03:33.619Z,19.41
2017-12-14T10:06:09.399Z,19.31
2017-12-14T10:08:21.241Z,19.57
2017-12-14T10:10:36.069Z,19.58
2017-12-14T10:12:51.864Z,19.49
2017-12-14T10:15:04.017Z,19.53
2017-12-14T10:17:19.281Z,19.63
2017-12-14T10:19:33.812Z,19.46
2017-12-14T10:21:49.483Z,19.43
2017-12-14T10:24:02.415Z,19.40
2017-12-14T10:26:13.667Z,19.47
2017-12-14T10:28:37.989Z,19.43
2017-12-14T10:30:58.439Z,19.38
2017-12-14T10:33:14.643Z,19.28
2017-12-14T10:35:37.364Z,19.27
2017-12-14T10:38:14.299Z,19.17
2017-12-14T10:40:31.998Z,19.18
2017-12-14T10:42:43.720Z,19.18
2017-12-14T10:44:59.084Z,19.15
2017-12-14T10:47:16.824Z,19.24
2017-12-14T10:49:29.279Z,19.23
2017-12-14T10:51:46.223Z,19.18
2017-12-14T10:54:06.102Z,19.19
2017-12-14T10:56:21.204Z,19.29
2017-12-14T10:58:43.096Z,19.33
2017-12-14T11:01:04.499Z,19.37
2017-12-14T11:03:11.436Z,19.45
2017-12-14T11:05:21.933Z,19.33
2017-12-14T11:07:45.462Z,19.42
2017-12-14T11:09:56.162Z,19.45
2017-12-14T11:12:06.350Z,19.57
2017-12-14T11:14:15.364Z,19.82
2017-12-14T11:16:24.240Z,19.82
2017-12-14T11:18:47.533Z,19.78
2017-12-14T11:20:56.575Z,19.92
2017-12-14T11:23:12.708Z,19.74
2017-12-14T11:25:30.343Z,19.88
2017-12-14T11:27:40.044Z,19.90
2017-12-14T11:29:55.878Z,19.87
2017-12-14T11:32:06.736Z,20.01
2017-12-14T11:34:13.520Z,20.01
2017-12-14T11:36:22.785Z,20.03
2017-12-14T11:38:33.540Z,20.04
2017-12-14T11:40:44.431Z,20.00
2017-12-14T11:42:54.219Z,19.85
2017-12-14T11:45:18.520Z,19.75
2017-12-14T11:47:28.775Z,19.64
2017-12-14T11:49:49.124Z,19.62
2017-12-14T11:52:05.994Z,19.75
2017-12-14T11:54:44.090Z,19.76
2017-12-14T11:56:57.544Z,19.71
2017-12-14T11:59:14.522Z,19.84
2017-12-14T12:01:27.617Z,19.83
2017-12-14T12:03:42.652Z,19.83
2017-12-14T12:05:56.598Z,19.86
2017-12-14T12:08:15.677Z,19.88
2017-12-14T12:10:29.117Z,19.82
2017-12-14T12:12:42.092Z,19.91
2017-12-14T12:15:07.463Z,19.88
2017-12-14T12:17:17.363Z,19.83
2017-12-14T12:19:35.273Z,19.76
2017-12-14T12:21:50.468Z,19.95
2017-12-14T12:23:59.960Z,19.88
2017-12-14T12:26:14.777Z,19.85
2017-12-14T12:28:28.940Z,19.84
2017-12-14T12:30:40.648Z,19.86
2017-12-14T12:32:53.653Z,19.91
2017-12-14T12:35:11.442Z,20.09
2017-12-14T12:37:18.899Z,20.09
2017-12-14T12:39:25.428Z,20.09
2017-12-14T12:41:34.584Z,20.11
2017-12-14T12:43:45.953Z,20.02
2017-12-14T12:45:52.481Z,19.99
2017-12-14T12:48:05.527Z,19.91
2017-12-14T12:50:18.112Z,19.80
2017-12-14T12:52:29.795Z,19.76
2017-12-14T12:54:37.755Z,19.82
2017-12-14T12:56:49.746Z,19.62
2017-12-14T12:59:03.522Z,19.55
2017-12-14T13:01:32.010Z,19.51
2017-12-14T13:03:43.693Z,19.60
2017-12-14T13:05:58.171Z,19.63
2017-12-14T13:08:13.707Z,19.65
2017-12-14T13:10:34.087Z,19.62
2017-12-14T13:12:46.790Z,19.60
2017-12-14T13:14:57.454Z,19.62
2017-12-14T13:17:10.437Z,19.65
2017-12-14T13:21:52.142Z,19.69
2017-12-14T13:24:01.611Z,19.71
2017-12-14T13:26:18.394Z,19.67
2017-12-14T13:28:31.529Z,19.72
2017-12-14T13:30:50.538Z,19.77
2017-12-14T13:33:00.626Z,19.81
2017-12-14T13:35:12.405Z,19.86
2017-12-14T13:37:25.251Z,19.84
2017-12-14T13:39:32.754Z,20.03
2017-12-14T13:41:45.533Z,20.05
2017-12-14T13:43:59.104Z,20.08
2017-12-14T13:46:07.747Z,20.01
2017-12-14T13:48:20.319Z,20.07
2017-12-14T13:50:27.907Z,20.08
2017-12-14T13:52:38.485Z,19.99
2017-12-14T13:54:46.415Z,20.11
2017-12-14T13:56:54.257Z,20.12
2017-12-14T13:59:04.417Z,20.03
2017-12-14T14:01:11.948Z,20.08
2017-12-14T14:03:20.367Z,19.86
2017-12-14T14:05:29.376Z,19.76
2017-12-14T14:07:43.589Z,19.66
2017-12-14T14:09:56.054Z,19.70
2017-12-14T14:12:04.241Z,19.60
2017-12-14T14:14:11.132Z,19.60
2017-12-14T14:16:21.028Z,19.45
2017-12-14T14:18:30.687Z,19.51
2017-12-14T14:20:40.738Z,19.56
2017-12-14T14:22:51.081Z,19.52
2017-12-14T14:24:59.925Z,19.65
2017-12-14T14:27:08.734Z,19.64
2017-12-14T14:29:17.789Z,19.80
2017-12-14T14:31:29.933Z,19.73
2017-12-14T14:33:39.008Z,19.81
2017-12-14T14:35:57.931Z,19.96
2017-12-14T14:38:09.023Z,20.04
2017-12-14T14:40:16.861Z,19.96
2017-12-14T14:42:27.895Z,19.89
2017-12-14T14:44:38.729Z,19.84
2017-12-14T14:46:53.788Z,19.94
2017-12-14T14:49:02.268Z,19.96
2017-12-14T14:51:19.012Z,19.85
2017-12-14T14:53:33.288Z,19.91
2017-12-14T14:55:51.785Z,19.91
2017-12-14T14:58:03.524Z,19.87
2017-12-14T15:00:15.198Z,19.81
2017-12-14T15:02:23.495Z,19.79
2017-12-14T15:04:34.485Z,19.70
2017-12-14T15:06:42.700Z,19.78
2017-12-14T15:08:57.391Z,19.77
2017-12-14T15:11:12.783Z,19.78
2017-12-14T15:13:20.647Z,19.78
2017-12-14T15:15:39.247Z,19.85
2017-12-14T15:17:49.130Z,19.91
2017-12-14T15:20:00.640Z,19.89
2017-12-14T15:22:14.162Z,19.84
2017-12-14T15:24:28.348Z,19.93
2017-12-14T15:26:39.325Z,20.02
2017-12-14T15:29:05.895Z,19.91
2017-12-14T15:31:18.651Z,19.98
2017-12-14T15:33:29.297Z,19.96
2017-12-14T15:35:46.741Z,20.02
2017-12-14T15:38:03.498Z,20.00
2017-12-14T15:40:15.795Z,19.92
2017-12-14T15:42:26.843Z,20.03
2017-12-14T15:44:39.889Z,19.96
2017-12-14T15:46:56.140Z,20.04
2017-12-14T15:49:11.171Z,20.01
2017-12-14T15:51:24.339Z,19.99
2017-12-14T15:53:36.619Z,19.99
2017-12-14T15:55:57.399Z,20.02
2017-12-14T15:58:08.586Z,19.93
2017-12-14T16:00:21.059Z,19.93
2017-12-14T16:02:32.777Z,19.90
2017-12-14T16:04:43.972Z,19.84
2017-12-14T16:06:56.095Z,19.88
2017-12-14T16:09:05.716Z,19.80
2017-12-14T16:11:15.132Z,19.89
2017-12-14T16:13:27.757Z,19.88
2017-12-14T16:15:43.781Z,19.84
2017-12-14T16:17:55.020Z,19.87
2017-12-14T16:20:06.706Z,19.83
2017-12-14T16:22:20.747Z,19.84
2017-12-14T16:24:29.202Z,19.89
2017-12-14T16:26:37.300Z,19.95
2017-12-14T16:28:46.378Z,19.97
2017-12-14T16:30:52.935Z,19.90
2017-12-14T16:33:10.964Z,19.90
2017-12-14T16:35:24.817Z,19.85
2017-12-14T16:37:34.424Z,19.97
2017-12-14T16:39:45.858Z,20.00
2017-12-14T16:41:54.707Z,20.03
2017-12-14T16:44:04.455Z,20.00
2017-12-14T16:46:12.520Z,20.05
2017-12-14T16:48:28.937Z,19.92
2017-12-14T16:50:37.726Z,19.95
2017-12-14T16:52:48.246Z,20.02
2017-12-14T16:54:58.846Z,19.99
2017-12-14T16:57:08.066Z,19.99
2017-12-14T16:59:22.365Z,19.96
2017-12-14T17:01:30.856Z,19.97
2017-12-14T17:03:42.706Z,19.99
2017-12-14T17:05:55.516Z,20.03
2017-12-14T17:08:12.230Z,20.01
2017-12-14T17:10:23.455Z,19.97
2017-12-14T17:12:33.208Z,20.03
2017-12-14T17:14:44.075Z,20.04
2017-12-14T17:16:55.860Z,19.98
2017-12-14T17:19:06.408Z,20.18
2017-12-14T17:21:15.344Z,20.01
2017-12-14T17:23:24.694Z,19.86
2017-12-14T17:25:33.607Z,19.80
2017-12-14T17:27:51.163Z,19.80
2017-12-14T17:32:20.234Z,19.83
2017-12-14T17:34:27.269Z,19.83
2017-12-14T17:36:35.791Z,19.71
2017-12-14T17:38:45.994Z,19.71
2017-12-14T17:40:53.163Z,19.78
2017-12-14T17:43:01.892Z,19.71
2017-12-14T17:45:20.183Z,19.70
2017-12-14T17:47:28.965Z,19.77
2017-12-14T17:49:36.450Z,19.87
2017-12-14T17:51:43.526Z,20.00
2017-12-14T17:53:51.251Z,19.87
2017-12-14T17:55:58.062Z,19.90
2017-12-14T17:58:06.108Z,19.93
2017-12-14T18:00:14.710Z,19.92
2017-12-14T18:02:22.906Z,19.86
2017-12-14T18:04:35.136Z,19.88
2017-12-14T18:06:42.828Z,19.97
2017-12-14T18:08:50.976Z,20.00
2017-12-14T18:11:04.361Z,19.96
2017-12-14T18:13:13.984Z,19.83
2017-12-14T18:15:24.067Z,19.78
2017-12-14T18:17:33.375Z,19.94
2017-12-14T18:19:43.436Z,19.79
2017-12-14T18:21:53.778Z,19.83
2017-12-14T18:24:03.918Z,19.85
2017-12-14T18:26:14.799Z,19.86
2017-12-14T18:28:25.203Z,19.87
2017-12-14T18:30:35.405Z,19.91
2017-12-14T18:32:45.603Z,19.77
2017-12-14T18:34:55.561Z,19.78
2017-12-14T18:37:14.080Z,19.86
2017-12-14T18:39:27.422Z,19.87
2017-12-14T18:41:40.571Z,19.85
2017-12-14T18:43:55.813Z,19.79
2017-12-14T18:46:11.253Z,19.91
2017-12-14T18:48:24.583Z,19.94
2017-12-14T18:53:11.001Z,20.01
2017-12-14T18:55:23.481Z,20.04
2017-12-14T18:57:34.259Z,20.09
2017-12-14T18:59:47.524Z,20.11
2017-12-14T19:02:04.154Z,20.25
2017-12-14T19:04:14.054Z,20.43
2017-12-14T19:06:26.547Z,20.36
2017-12-14T19:08:42.967Z,20.21
2017-12-14T19:10:57.506Z,20.32
2017-12-14T19:13:10.454Z,20.36
2017-12-14T19:15:18.451Z,20.30
2017-12-14T19:17:37.946Z,20.39
2017-12-14T19:19:50.543Z,20.50
2017-12-14T19:22:04.624Z,20.46
2017-12-14T19:24:21.385Z,20.47
2017-12-14T19:26:34.594Z,20.49
2017-12-14T19:32:01.101Z,20.25
2017-12-14T19:34:22.976Z,20.27
2017-12-14T19:36:39.456Z,20.18
2017-12-14T19:38:57.753Z,20.33
2017-12-14T19:41:17.401Z,20.29
2017-12-14T19:43:29.179Z,20.50
2017-12-14T19:45:48.979Z,20.50
2017-12-14T19:47:58.858Z,20.58
2017-12-14T19:50:20.230Z,20.62
2017-12-14T19:55:11.734Z,20.60
2017-12-14T19:57:27.132Z,20.60
2017-12-14T20:02:12.188Z,20.65
2017-12-14T20:04:27.236Z,20.61
2017-12-14T20:06:36.551Z,20.63
2017-12-14T20:08:51.838Z,20.63
2017-12-14T20:11:08.380Z,20.49
2017-12-14T20:13:20.562Z,20.44
2017-12-14T20:15:44.102Z,20.51
2017-12-14T20:17:56.957Z,20.58
2017-12-14T20:20:18.663Z,20.60
2017-12-14T20:22:26.572Z,20.58
2017-12-14T20:24:39.101Z,20.53
2017-12-14T20:26:45.018Z,20.63
2017-12-14T20:28:54.549Z,20.64
2017-12-14T20:31:00.342Z,20.65
2017-12-14T20:33:07.061Z,20.54
2017-12-14T20:35:19.169Z,20.45
2017-12-14T20:37:26.753Z,20.36
2017-12-14T20:39:33.752Z,20.45
2017-12-14T20:41:40.242Z,20.52
2017-12-14T20:43:46.505Z,20.49
2017-12-14T20:45:57.166Z,20.41
2017-12-14T20:48:05.215Z,20.44
2017-12-14T20:50:19.155Z,20.48
2017-12-14T20:52:28.363Z,20.45
2017-12-14T20:54:36.599Z,20.50
2017-12-14T20:56:43.514Z,20.52
2017-12-14T20:58:57.694Z,20.66
2017-12-14T21:01:09.010Z,20.74
2017-12-14T21:03:16.577Z,20.69
2017-12-14T21:05:28.065Z,20.71
2017-12-14T21:07:36.185Z,20.69
2017-12-14T21:09:49.467Z,20.68
2017-12-14T21:11:59.949Z,20.70
2017-12-14T21:14:09.674Z,20.65
2017-12-14T21:16:15.629Z,20.56
2017-12-14T21:18:23.512Z,20.61
2017-12-14T21:20:30.934Z,20.65
2017-12-14T21:22:36.898Z,20.55
2017-12-14T21:24:44.432Z,20.60
2017-12-14T21:26:51.516Z,20.69
2017-12-14T21:28:57.844Z,20.76
2017-12-14T21:31:07.199Z,20.63
2017-12-14T21:33:15.275Z,20.67
2017-12-14T21:35:21.911Z,20.72
2017-12-14T21:37:28.103Z,20.75
2017-12-14T21:39:33.608Z,20.77
2017-12-14T21:41:39.052Z,20.83
2017-12-14T21:43:45.304Z,20.79
2017-12-14T21:45:51.456Z,20.86
2017-12-14T21:47:58.983Z,20.79
2017-12-14T21:50:06.894Z,20.77
2017-12-14T21:52:13.332Z,20.82
2017-12-14T21:54:19.339Z,20.83
2017-12-14T21:56:25.492Z,20.76
2017-12-14T21:58:31.696Z,20.60
2017-12-14T22:00:38.494Z,20.67
2017-12-14T22:02:44.255Z,20.72
2017-12-14T22:04:50.627Z,20.71
2017-12-14T22:06:56.363Z,20.76
2017-12-14T22:09:04.338Z,20.98
2017-12-14T22:11:10.602Z,20.95
2017-12-14T22:13:16.307Z,21.01
2017-12-14T22:15:24.605Z,20.98
2017-12-14T22:17:32.395Z,20.91
2017-12-14T22:19:39.288Z,20.85
2017-12-14T22:21:46.540Z,20.86
2017-12-14T22:23:56.738Z,20.87
2017-12-14T22:26:03.189Z,20.85
2017-12-14T22:28:09.190Z,20.77
2017-12-14T22:30:15.448Z,20.85
2017-12-14T22:32:20.957Z,20.90
2017-12-14T22:34:28.955Z,20.90
2017-12-14T22:36:35.358Z,20.87
2017-12-14T22:38:42.684Z,20.86
2017-12-14T22:40:50.663Z,20.80
2017-12-14T22:42:56.352Z,20.80
2017-12-14T22:45:04.039Z,20.78
2017-12-14T22:47:13.516Z,20.78
2017-12-14T22:49:19.177Z,20.91
2017-12-14T22:51:26.082Z,20.91
2017-12-14T22:53:37.994Z,20.93
2017-12-14T22:55:43.764Z,20.89
2017-12-14T22:57:52.416Z,20.89
2017-12-14T23:00:04.041Z,20.98
2017-12-14T23:02:11.454Z,21.01
2017-12-14T23:04:23.532Z,20.89
2017-12-14T23:06:33.686Z,20.95
2017-12-14T23:08:40.974Z,20.93
2017-12-14T23:10:49.077Z,20.93
2017-12-14T23:12:57.200Z,20.94
2017-12-14T23:15:05.010Z,20.96
2017-12-14T23:17:12.445Z,20.98
2017-12-14T23:19:21.174Z,20.98
2017-12-14T23:21:29.080Z,20.88
2017-12-14T23:23:39.767Z,20.85
2017-12-14T23:25:48.894Z,20.87
2017-12-14T23:27:58.905Z,20.82
2017-12-14T23:30:08.148Z,20.87
2017-12-14T23:32:14.389Z,20.78
2017-12-14T23:34:22.895Z,20.72
2017-12-14T23:36:29.176Z,20.86
2017-12-14T23:38:37.460Z,20.84
2017-12-14T23:40:45.424Z,20.78
2017-12-14T23:42:52.029Z,20.84
2017-12-14T23:45:02.182Z,20.97
2017-12-14T23:47:10.421Z,20.91
2017-12-14T23:49:18.539Z,20.95
2017-12-14T23:51:31.380Z,20.90
2017-12-14T23:53:39.851Z,20.87
2017-12-14T23:55:50.093Z,20.79
2017-12-14T23:57:57.435Z,20.95
